createdAt,value
2018-07-20T00:04:24.465Z,21.75
2018-07-20T00:09:19.181Z,21.68
2018-07-20T00:14:13.793Z,21.35
2018-07-20T00:19:08.441Z,21.40
2018-07-20T00:24:03.115Z,21.26
2018-07-20T00:28:57.691Z,21.09
2018-07-20T00:33:52.435Z,21.06
2018-07-20T00:38:48.094Z,21.17
2018-07-20T00:43:42.935Z,20.96
2018-07-20T00:48:37.676Z,20.97
2018-07-20T00:53:32.486Z,20.64
2018-07-20T00:58:27.334Z,20.93
2018-07-20T01:03:21.702Z,20.85
2018-07-20T01:08:16.417Z,20.66
2018-07-20T01:13:11.162Z,20.84
2018-07-20T01:18:06.046Z,20.76
2018-07-20T01:23:00.718Z,20.66
2018-07-20T01:27:55.376Z,20.36
2018-07-20T01:32:50.070Z,20.45
2018-07-20T01:37:44.703Z,20.57
2018-07-20T01:42:39.188Z,20.33
2018-07-20T01:47:33.819Z,20.38
2018-07-20T01:52:28.470Z,20.48
2018-07-20T01:57:23.352Z,20.02
2018-07-20T02:02:18.100Z,20.11
2018-07-20T02:07:12.698Z,20.17
2018-07-20T02:12:07.424Z,20.21
2018-07-20T02:17:02.154Z,20.18
2018-07-20T02:21:56.943Z,20.04
2018-07-20T02:26:51.615Z,19.97
2018-07-20T02:31:46.300Z,20.05
2018-07-20T02:36:41.023Z,19.71
2018-07-20T02:41:35.307Z,19.68
2018-07-20T02:46:30.562Z,19.57
2018-07-20T02:51:25.183Z,19.54
2018-07-20T02:56:19.876Z,19.71
2018-07-20T03:01:14.480Z,19.57
2018-07-20T03:06:09.134Z,19.72
2018-07-20T03:11:03.723Z,19.53
2018-07-20T03:15:58.299Z,19.70
2018-07-20T03:20:53.171Z,19.67
2018-07-20T03:25:47.861Z,19.72
2018-07-20T03:30:42.488Z,19.59
2018-07-20T03:35:37.058Z,19.14
2018-07-20T03:40:31.732Z,19.17
2018-07-20T03:50:15.168Z,19.28
2018-07-20T03:55:09.760Z,19.09
2018-07-20T04:00:05.300Z,19.45
2018-07-20T04:04:59.978Z,19.30
2018-07-20T04:09:54.779Z,19.30
2018-07-20T04:14:50.060Z,19.62
2018-07-20T04:19:44.613Z,19.77
2018-07-20T04:24:39.389Z,19.73
2018-07-20T04:29:34.103Z,19.63
2018-07-20T04:34:28.682Z,20.07
2018-07-20T04:39:23.464Z,20.01
2018-07-20T04:44:18.064Z,20.06
2018-07-20T04:49:12.779Z,20.08
2018-07-20T04:54:07.635Z,20.15
2018-07-20T04:59:02.368Z,20.08
2018-07-20T05:03:57.144Z,20.95
2018-07-20T05:08:51.872Z,21.32
2018-07-20T05:13:46.653Z,21.27
2018-07-20T05:18:41.367Z,21.41
2018-07-20T05:23:36.046Z,21.80
2018-07-20T05:28:30.814Z,22.56
2018-07-20T05:33:25.485Z,23.00
2018-07-20T05:38:20.169Z,23.21
2018-07-20T05:43:15.143Z,23.33
2018-07-20T05:48:10.063Z,23.51
2018-07-20T05:53:04.757Z,23.55
2018-07-20T05:58:00.326Z,23.43
2018-07-20T06:02:54.995Z,23.21
2018-07-20T06:07:49.725Z,23.03
2018-07-20T06:12:44.442Z,22.75
2018-07-20T06:17:39.242Z,22.76
2018-07-20T06:22:34.124Z,22.78
2018-07-20T06:27:28.999Z,22.85
2018-07-20T06:32:23.719Z,22.81
2018-07-20T06:37:18.813Z,22.78
2018-07-20T06:42:13.521Z,22.89
2018-07-20T06:47:08.558Z,23.30
2018-07-20T06:52:06.111Z,23.56
2018-07-20T06:57:00.810Z,23.79
2018-07-20T07:01:55.359Z,24.17
2018-07-20T07:06:50.052Z,24.46
2018-07-20T07:11:44.812Z,24.74
2018-07-20T07:16:39.635Z,25.14
2018-07-20T07:21:34.255Z,25.36
2018-07-20T07:26:28.979Z,25.81
2018-07-20T07:31:23.702Z,26.10
2018-07-20T07:36:18.313Z,26.64
2018-07-20T07:41:13.098Z,26.88
2018-07-20T07:46:07.861Z,26.61
2018-07-20T07:51:02.212Z,26.12
2018-07-20T07:55:56.961Z,25.91
2018-07-20T08:00:51.755Z,26.18
2018-07-20T08:05:46.336Z,25.86
2018-07-20T08:10:40.946Z,26.75
2018-07-20T08:15:35.637Z,27.24
2018-07-20T08:20:30.307Z,27.84
2018-07-20T08:25:25.027Z,27.78
2018-07-20T08:30:19.742Z,28.46
2018-07-20T08:35:14.483Z,28.33
2018-07-20T08:40:09.317Z,28.65
2018-07-20T08:45:04.013Z,27.42
2018-07-20T08:49:58.611Z,27.37
2018-07-20T08:54:53.229Z,28.20
2018-07-20T08:59:48.156Z,28.42
2018-07-20T09:04:42.870Z,28.36
2018-07-20T09:09:37.460Z,29.02
2018-07-20T09:14:32.109Z,29.27
2018-07-20T09:19:26.872Z,29.27
2018-07-20T09:24:21.581Z,28.78
2018-07-20T09:29:16.404Z,28.28
2018-07-20T09:34:11.169Z,28.17
2018-07-20T09:39:09.905Z,28.34
2018-07-20T09:44:04.707Z,28.98
2018-07-20T09:48:59.367Z,29.21
2018-07-20T09:53:54.096Z,29.65
2018-07-20T09:58:48.816Z,30.05
2018-07-20T10:03:43.561Z,29.53
2018-07-20T10:08:38.251Z,30.23
2018-07-20T10:13:32.955Z,29.95
2018-07-20T10:18:27.707Z,29.38
2018-07-20T10:23:22.280Z,29.91
2018-07-20T10:28:16.978Z,30.28
2018-07-20T10:33:11.688Z,30.57
2018-07-20T10:38:06.521Z,30.78
2018-07-20T10:43:01.237Z,30.88
2018-07-20T10:47:56.066Z,31.08
2018-07-20T10:52:50.891Z,31.24
2018-07-20T10:57:45.667Z,31.22
2018-07-20T11:02:40.568Z,31.05
2018-07-20T11:07:35.466Z,31.63
2018-07-20T11:12:30.079Z,31.14
2018-07-20T11:17:25.192Z,31.34
2018-07-20T11:22:19.965Z,31.60
2018-07-20T11:27:14.794Z,31.69
2018-07-20T11:32:09.550Z,31.97
2018-07-20T11:37:04.180Z,32.24
2018-07-20T11:41:58.833Z,32.20
2018-07-20T11:46:53.554Z,32.20
2018-07-20T11:51:48.171Z,32.30
2018-07-20T11:56:42.817Z,32.17
2018-07-20T12:01:37.567Z,32.33
2018-07-20T12:06:32.331Z,32.52
2018-07-20T12:11:27.031Z,32.67
2018-07-20T12:16:21.841Z,32.80
2018-07-20T12:21:16.691Z,32.98
2018-07-20T12:26:11.384Z,32.77
2018-07-20T12:31:06.220Z,32.71
2018-07-20T12:36:00.822Z,32.43
2018-07-20T12:40:55.550Z,31.97
2018-07-20T12:45:50.246Z,32.12
2018-07-20T12:50:44.973Z,32.10
2018-07-20T12:55:39.712Z,32.38
2018-07-20T13:00:34.451Z,32.17
2018-07-20T13:05:29.451Z,31.80
2018-07-20T13:10:24.166Z,31.78
2018-07-20T13:15:19.007Z,31.86
2018-07-20T13:20:13.591Z,31.75
2018-07-20T13:25:08.344Z,31.81
2018-07-20T13:30:03.107Z,31.78
2018-07-20T13:34:57.761Z,31.69
2018-07-20T13:39:52.492Z,31.81
2018-07-20T13:44:47.168Z,31.63
2018-07-20T13:49:41.868Z,31.69
2018-07-20T13:54:36.630Z,31.76
2018-07-20T13:59:31.387Z,31.83
2018-07-20T14:04:26.291Z,31.89
2018-07-20T14:09:21.025Z,31.72
2018-07-20T14:14:15.797Z,31.93
2018-07-20T14:19:10.124Z,31.47
2018-07-20T14:24:04.945Z,31.60
2018-07-20T14:28:59.624Z,31.72
2018-07-20T14:33:54.382Z,31.94
2018-07-20T14:38:48.987Z,31.84
2018-07-20T14:43:43.611Z,31.21
2018-07-20T14:48:38.305Z,30.87
2018-07-20T14:53:32.882Z,29.98
2018-07-20T14:58:27.561Z,29.46
2018-07-20T15:03:22.152Z,29.80
2018-07-20T15:08:16.803Z,30.14
2018-07-20T15:13:11.428Z,30.91
2018-07-20T15:18:06.160Z,30.45
2018-07-20T15:23:00.887Z,30.43
2018-07-20T15:27:55.665Z,30.32
2018-07-20T15:32:50.349Z,30.62
2018-07-20T15:37:45.028Z,30.64
2018-07-20T15:42:40.496Z,30.89
2018-07-20T15:47:35.158Z,30.74
2018-07-20T15:57:24.684Z,30.48
2018-07-20T16:02:20.407Z,30.47
2018-07-20T16:07:15.235Z,30.39
2018-07-20T16:12:09.903Z,30.31
2018-07-20T16:17:04.577Z,30.19
2018-07-20T16:21:59.285Z,30.29
2018-07-20T16:26:54.136Z,30.19
2018-07-20T16:31:48.811Z,30.39
2018-07-20T16:36:43.615Z,30.12
2018-07-20T16:41:38.284Z,29.85
2018-07-20T16:46:33.174Z,29.69
2018-07-20T16:51:27.913Z,29.56
2018-07-20T16:56:22.779Z,29.39
2018-07-20T17:01:17.668Z,29.10
2018-07-20T17:06:12.319Z,28.82
2018-07-20T17:11:07.468Z,28.71
2018-07-20T17:16:02.155Z,28.70
2018-07-20T17:20:56.917Z,28.52
2018-07-20T17:25:51.727Z,28.56
2018-07-20T17:30:46.354Z,28.41
2018-07-20T17:35:41.511Z,28.32
2018-07-20T17:40:36.127Z,28.15
2018-07-20T17:45:31.690Z,28.03
2018-07-20T17:50:26.290Z,27.90
2018-07-20T17:55:21.055Z,27.71
2018-07-20T18:00:15.680Z,27.77
2018-07-20T18:05:10.440Z,27.58
2018-07-20T18:10:05.790Z,27.53
2018-07-20T18:15:00.932Z,27.24
2018-07-20T18:19:55.650Z,27.29
2018-07-20T18:24:50.741Z,27.16
2018-07-20T18:29:45.446Z,26.95
2018-07-20T18:34:40.244Z,26.61
2018-07-20T18:39:34.976Z,26.48
2018-07-20T18:44:30.084Z,26.52
2018-07-20T18:49:24.861Z,26.45
2018-07-20T18:54:22.823Z,26.49
2018-07-20T18:59:17.556Z,26.44
2018-07-20T19:04:12.475Z,26.28
2018-07-20T19:09:10.462Z,26.14
2018-07-20T19:14:05.475Z,26.13
2018-07-20T19:19:00.293Z,25.94
2018-07-20T19:23:55.071Z,25.88
2018-07-20T19:28:49.797Z,25.98
2018-07-20T19:33:44.488Z,25.79
2018-07-20T19:38:39.196Z,25.75
2018-07-20T19:43:34.304Z,25.63
2018-07-20T19:48:29.165Z,25.73
2018-07-20T19:53:23.916Z,25.72
2018-07-20T19:58:18.709Z,25.80
2018-07-20T20:03:13.689Z,25.65
2018-07-20T20:08:08.456Z,25.61
2018-07-20T20:13:03.217Z,25.48
2018-07-20T20:17:58.144Z,25.30
2018-07-20T20:22:52.509Z,25.17
2018-07-20T20:27:48.286Z,24.85
2018-07-20T20:32:43.261Z,24.35
2018-07-20T20:37:38.153Z,24.49
2018-07-20T20:42:32.953Z,24.75
2018-07-20T20:47:27.326Z,24.65
2018-07-20T20:52:21.719Z,24.63
2018-07-20T20:57:16.446Z,24.48
2018-07-20T21:02:11.223Z,24.58
2018-07-20T21:07:06.031Z,24.46
2018-07-20T21:12:00.915Z,24.50
2018-07-20T21:16:55.584Z,24.31
2018-07-20T21:21:50.399Z,24.45
2018-07-20T21:26:45.140Z,24.42
2018-07-20T21:31:39.777Z,24.25
2018-07-20T21:36:34.591Z,24.19
2018-07-20T21:41:29.253Z,24.31
2018-07-20T21:46:30.192Z,24.17
2018-07-20T21:51:24.876Z,23.93
2018-07-20T21:56:20.574Z,23.83
2018-07-20T22:01:15.270Z,23.60
2018-07-20T22:06:10.141Z,23.72
2018-07-20T22:11:04.935Z,23.49
2018-07-20T22:15:59.643Z,23.63
2018-07-20T22:20:55.150Z,23.55
2018-07-20T22:25:49.860Z,23.55
2018-07-20T22:30:44.622Z,23.46
2018-07-20T22:35:39.359Z,23.36
2018-07-20T22:40:34.043Z,23.16
2018-07-20T22:45:28.661Z,23.31
2018-07-20T22:50:23.343Z,23.35
2018-07-20T22:55:18.010Z,23.07
2018-07-20T23:00:12.706Z,22.68
2018-07-20T23:05:07.429Z,22.94
2018-07-20T23:10:02.063Z,22.96
2018-07-20T23:14:57.004Z,22.95
2018-07-20T23:19:51.669Z,22.90
2018-07-20T23:24:46.300Z,23.09
2018-07-20T23:29:41.025Z,23.08
2018-07-20T23:34:35.605Z,22.94
2018-07-20T23:39:31.155Z,23.15
2018-07-20T23:44:25.854Z,22.95
2018-07-20T23:49:20.548Z,22.89
2018-07-20T23:54:15.230Z,23.01
2018-07-20T23:59:10.009Z,22.79
